sensor_id;sensor_type;location;lat;lon;timestamp;pressure;altitude;pressure_sealevel;temperature;humidity
9672;BME280;4874;43.568;27.824;2022-10-16T00:01:22;99711.91;;;9.84;100.00
9672;BME280;4874;43.568;27.824;2022-10-16T00:03:49;99724.16;;;9.74;100.00
9672;BME280;4874;43.568;27.824;2022-10-16T00:06:19;99718.88;;;9.74;100.00
9672;BME280;4874;43.568;27.824;2022-10-16T00:08:46;99723.44;;;9.83;100.00
9672;BME280;4874;43.568;27.824;2022-10-16T00:11:18;99720.56;;;9.75;100.00
9672;BME280;4874;43.568;27.824;2022-10-16T00:13:48;99716.94;;;9.53;100.00
9672;BME280;4874;43.568;27.824;2022-10-16T00:16:16;99722.47;;;9.62;100.00
9672;BME280;4874;43.568;27.824;2022-10-16T00:18:43;99720.81;;;9.61;100.00
9672;BME280;4874;43.568;27.824;2022-10-16T00:21:17;99728.53;;;9.52;100.00
9672;BME280;4874;43.568;27.824;2022-10-16T00:23:44;99717.16;;;9.39;100.00
9672;BME280;4874;43.568;27.824;2022-10-16T00:26:13;99728.03;;;9.47;100.00
9672;BME280;4874;43.568;27.824;2022-10-16T00:28:40;99717.75;;;9.43;100.00
9672;BME280;4874;43.568;27.824;2022-10-16T00:31:09;99719.34;;;9.57;100.00
9672;BME280;4874;43.568;27.824;2022-10-16T00:33:38;99711.63;;;9.31;100.00
9672;BME280;4874;43.568;27.824;2022-10-16T00:36:06;99730.78;;;9.35;100.00
9672;BME280;4874;43.568;27.824;2022-10-16T00:38:34;99730.91;;;9.33;100.00
9672;BME280;4874;43.568;27.824;2022-10-16T00:41:00;99730.31;;;9.52;100.00
9672;BME280;4874;43.568;27.824;2022-10-16T00:48:48;99709.66;;;9.11;100.00
9672;BME280;4874;43.568;27.824;2022-10-16T00:51:18;99720.25;;;9.22;100.00
9672;BME280;4874;43.568;27.824;2022-10-16T00:53:46;99728.09;;;9.13;100.00
9672;BME280;4874;43.568;27.824;2022-10-16T00:56:12;99731.19;;;9.07;100.00
9672;BME280;4874;43.568;27.824;2022-10-16T00:58:39;99737.44;;;9.06;100.00
9672;BME280;4874;43.568;27.824;2022-10-16T01:01:06;99739.31;;;9.27;100.00
9672;BME280;4874;43.568;27.824;2022-10-16T01:03:35;99746.13;;;9.19;100.00
9672;BME280;4874;43.568;27.824;2022-10-16T01:14:54;99751.47;;;8.84;100.00
9672;BME280;4874;43.568;27.824;2022-10-16T01:28:13;99769.50;;;8.79;100.00
9672;BME280;4874;43.568;27.824;2022-10-16T01:30:42;99768.06;;;8.86;100.00
9672;BME280;4874;43.568;27.824;2022-10-16T01:33:30;99760.06;;;8.99;100.00
9672;BME280;4874;43.568;27.824;2022-10-16T01:36:05;99748.53;;;8.53;100.00
9672;BME280;4874;43.568;27.824;2022-10-16T01:38:37;99772.97;;;8.56;100.00
9672;BME280;4874;43.568;27.824;2022-10-16T01:41:09;99775.47;;;8.70;100.00
9672;BME280;4874;43.568;27.824;2022-10-16T01:43:42;99769.88;;;8.62;100.00
9672;BME280;4874;43.568;27.824;2022-10-16T01:46:13;99775.78;;;8.66;100.00
9672;BME280;4874;43.568;27.824;2022-10-16T01:48:42;99774.50;;;8.71;100.00
9672;BME280;4874;43.568;27.824;2022-10-16T01:51:11;99778.22;;;8.69;100.00
9672;BME280;4874;43.568;27.824;2022-10-16T01:53:40;99784.41;;;8.80;100.00
9672;BME280;4874;43.568;27.824;2022-10-16T01:56:11;99779.06;;;8.69;100.00
9672;BME280;4874;43.568;27.824;2022-10-16T01:58:46;99777.66;;;8.53;100.00
9672;BME280;4874;43.568;27.824;2022-10-16T02:01:17;99731.38;;;8.22;100.00
9672;BME280;4874;43.568;27.824;2022-10-16T02:03:46;99782.16;;;8.40;100.00
9672;BME280;4874;43.568;27.824;2022-10-16T02:06:13;99785.09;;;8.35;100.00
9672;BME280;4874;43.568;27.824;2022-10-16T02:08:40;99790.03;;;8.52;100.00
9672;BME280;4874;43.568;27.824;2022-10-16T02:11:10;99803.38;;;8.51;100.00
9672;BME280;4874;43.568;27.824;2022-10-16T02:13:48;99790.97;;;8.27;100.00
9672;BME280;4874;43.568;27.824;2022-10-16T02:16:18;99794.97;;;8.20;100.00
9672;BME280;4874;43.568;27.824;2022-10-16T02:18:44;99788.31;;;8.27;100.00
9672;BME280;4874;43.568;27.824;2022-10-16T02:21:21;99797.16;;;8.39;100.00
9672;BME280;4874;43.568;27.824;2022-10-16T02:26:35;99796.53;;;8.36;100.00
9672;BME280;4874;43.568;27.824;2022-10-16T02:29:08;99805.44;;;8.09;100.00
9672;BME280;4874;43.568;27.824;2022-10-16T02:31:41;99797.91;;;8.16;100.00
9672;BME280;4874;43.568;27.824;2022-10-16T02:34:10;99808.09;;;8.09;100.00
9672;BME280;4874;43.568;27.824;2022-10-16T02:36:39;99800.38;;;8.19;100.00
9672;BME280;4874;43.568;27.824;2022-10-16T02:39:07;99809.16;;;8.32;100.00
9672;BME280;4874;43.568;27.824;2022-10-16T02:41:35;99808.84;;;8.11;100.00
9672;BME280;4874;43.568;27.824;2022-10-16T02:44:02;99806.72;;;8.04;100.00
9672;BME280;4874;43.568;27.824;2022-10-16T02:46:28;99799.66;;;7.92;100.00
9672;BME280;4874;43.568;27.824;2022-10-16T02:48:55;99809.28;;;7.93;100.00
9672;BME280;4874;43.568;27.824;2022-10-16T02:51:21;99812.34;;;7.99;100.00
9672;BME280;4874;43.568;27.824;2022-10-16T02:53:48;99808.22;;;8.08;100.00
9672;BME280;4874;43.568;27.824;2022-10-16T02:56:15;99815.28;;;8.32;100.00
9672;BME280;4874;43.568;27.824;2022-10-16T02:58:41;99817.72;;;8.10;100.00
9672;BME280;4874;43.568;27.824;2022-10-16T03:01:08;99819.94;;;8.04;100.00
9672;BME280;4874;43.568;27.824;2022-10-16T03:03:35;99815.38;;;8.18;100.00
9672;BME280;4874;43.568;27.824;2022-10-16T03:06:02;99817.63;;;7.99;100.00
9672;BME280;4874;43.568;27.824;2022-10-16T03:08:29;99814.66;;;8.04;100.00
9672;BME280;4874;43.568;27.824;2022-10-16T03:10:55;99818.91;;;8.06;100.00
9672;BME280;4874;43.568;27.824;2022-10-16T03:13:22;99821.00;;;7.89;100.00
9672;BME280;4874;43.568;27.824;2022-10-16T03:15:49;99804.41;;;7.87;100.00
9672;BME280;4874;43.568;27.824;2022-10-16T03:18:16;99816.47;;;7.78;100.00
9672;BME280;4874;43.568;27.824;2022-10-16T03:20:43;99813.13;;;7.76;100.00
9672;BME280;4874;43.568;27.824;2022-10-16T03:23:10;99808.94;;;7.97;100.00
9672;BME280;4874;43.568;27.824;2022-10-16T03:25:37;99818.59;;;7.73;100.00
9672;BME280;4874;43.568;27.824;2022-10-16T03:28:04;99815.41;;;7.68;100.00
9672;BME280;4874;43.568;27.824;2022-10-16T03:30:30;99824.94;;;7.58;100.00
9672;BME280;4874;43.568;27.824;2022-10-16T03:32:57;99824.41;;;7.66;100.00
9672;BME280;4874;43.568;27.824;2022-10-16T03:35:24;99813.94;;;7.52;100.00
9672;BME280;4874;43.568;27.824;2022-10-16T03:37:51;99823.13;;;7.59;100.00
9672;BME280;4874;43.568;27.824;2022-10-16T03:40:17;99823.69;;;7.64;100.00
9672;BME280;4874;43.568;27.824;2022-10-16T03:42:44;99824.28;;;7.55;100.00
9672;BME280;4874;43.568;27.824;2022-10-16T03:45:11;99794.44;;;7.15;100.00
9672;BME280;4874;43.568;27.824;2022-10-16T03:47:38;99833.25;;;7.40;100.00
9672;BME280;4874;43.568;27.824;2022-10-16T03:50:05;99830.00;;;7.49;100.00
9672;BME280;4874;43.568;27.824;2022-10-16T03:52:31;99833.94;;;7.56;100.00
9672;BME280;4874;43.568;27.824;2022-10-16T03:54:59;99839.28;;;7.42;100.00
9672;BME280;4874;43.568;27.824;2022-10-16T03:57:26;99820.06;;;7.40;100.00
9672;BME280;4874;43.568;27.824;2022-10-16T03:59:52;99831.59;;;7.39;100.00
9672;BME280;4874;43.568;27.824;2022-10-16T04:02:19;99840.75;;;7.33;100.00
9672;BME280;4874;43.568;27.824;2022-10-16T04:04:46;99752.22;;;6.76;100.00
9672;BME280;4874;43.568;27.824;2022-10-16T04:07:12;99821.69;;;7.15;100.00
9672;BME280;4874;43.568;27.824;2022-10-16T04:09:39;99849.97;;;7.40;100.00
9672;BME280;4874;43.568;27.824;2022-10-16T04:12:06;99849.59;;;7.32;100.00
9672;BME280;4874;43.568;27.824;2022-10-16T04:14:32;99853.97;;;7.33;100.00
9672;BME280;4874;43.568;27.824;2022-10-16T04:16:59;99858.72;;;7.41;100.00
9672;BME280;4874;43.568;27.824;2022-10-16T04:19:26;99850.69;;;7.30;100.00
9672;BME280;4874;43.568;27.824;2022-10-16T04:21:52;99848.56;;;7.35;100.00
9672;BME280;4874;43.568;27.824;2022-10-16T04:24:19;99857.13;;;7.38;100.00
9672;BME280;4874;43.568;27.824;2022-10-16T04:26:46;99844.38;;;7.45;100.00
9672;BME280;4874;43.568;27.824;2022-10-16T04:29:12;99840.69;;;7.47;100.00
9672;BME280;4874;43.568;27.824;2022-10-16T04:31:39;99848.78;;;7.44;100.00
9672;BME280;4874;43.568;27.824;2022-10-16T04:34:06;99843.91;;;7.26;100.00
9672;BME280;4874;43.568;27.824;2022-10-16T04:36:32;99833.59;;;7.60;100.00
9672;BME280;4874;43.568;27.824;2022-10-16T04:38:59;99841.31;;;7.51;100.00
9672;BME280;4874;43.568;27.824;2022-10-16T04:41:25;99841.94;;;7.42;100.00
9672;BME280;4874;43.568;27.824;2022-10-16T04:43:52;99835.66;;;7.18;100.00
9672;BME280;4874;43.568;27.824;2022-10-16T04:46:19;99828.59;;;7.31;100.00
9672;BME280;4874;43.568;27.824;2022-10-16T04:48:45;99843.97;;;7.51;100.00
9672;BME280;4874;43.568;27.824;2022-10-16T04:51:13;99841.50;;;7.48;100.00
9672;BME280;4874;43.568;27.824;2022-10-16T04:53:39;99828.28;;;7.48;100.00
9672;BME280;4874;43.568;27.824;2022-10-16T04:56:06;99850.59;;;7.56;100.00
9672;BME280;4874;43.568;27.824;2022-10-16T04:58:33;99849.53;;;7.46;100.00
9672;BME280;4874;43.568;27.824;2022-10-16T05:00:59;99852.22;;;7.59;100.00
9672;BME280;4874;43.568;27.824;2022-10-16T05:03:26;99865.19;;;7.62;100.00
9672;BME280;4874;43.568;27.824;2022-10-16T05:05:53;99844.38;;;7.82;100.00
9672;BME280;4874;43.568;27.824;2022-10-16T05:08:19;99858.38;;;7.97;100.00
9672;BME280;4874;43.568;27.824;2022-10-16T05:10:46;99855.28;;;8.28;100.00
9672;BME280;4874;43.568;27.824;2022-10-16T05:13:12;99861.28;;;8.43;100.00
9672;BME280;4874;43.568;27.824;2022-10-16T05:15:39;99856.38;;;8.62;100.00
9672;BME280;4874;43.568;27.824;2022-10-16T05:18:06;99879.63;;;8.69;100.00
9672;BME280;4874;43.568;27.824;2022-10-16T05:20:33;99885.50;;;9.32;100.00
9672;BME280;4874;43.568;27.824;2022-10-16T05:22:59;99877.22;;;8.90;100.00
9672;BME280;4874;43.568;27.824;2022-10-16T05:25:26;99881.75;;;9.00;100.00
9672;BME280;4874;43.568;27.824;2022-10-16T05:27:53;99883.34;;;8.79;100.00
9672;BME280;4874;43.568;27.824;2022-10-16T05:30:19;99893.72;;;9.06;100.00
9672;BME280;4874;43.568;27.824;2022-10-16T05:32:50;99902.94;;;9.47;100.00
9672;BME280;4874;43.568;27.824;2022-10-16T05:35:19;99902.84;;;9.49;100.00
9672;BME280;4874;43.568;27.824;2022-10-16T05:37:46;99906.72;;;9.32;100.00
9672;BME280;4874;43.568;27.824;2022-10-16T05:40:13;99898.88;;;9.31;100.00
9672;BME280;4874;43.568;27.824;2022-10-16T05:42:40;99907.53;;;9.80;100.00
9672;BME280;4874;43.568;27.824;2022-10-16T05:45:08;99904.69;;;9.60;100.00
9672;BME280;4874;43.568;27.824;2022-10-16T05:47:35;99911.22;;;9.78;100.00
9672;BME280;4874;43.568;27.824;2022-10-16T05:50:02;99913.28;;;9.74;100.00
9672;BME280;4874;43.568;27.824;2022-10-16T05:52:30;99917.91;;;9.25;100.00
9672;BME280;4874;43.568;27.824;2022-10-16T05:54:57;99920.28;;;9.51;100.00
9672;BME280;4874;43.568;27.824;2022-10-16T05:57:23;99917.03;;;9.48;100.00
9672;BME280;4874;43.568;27.824;2022-10-16T05:59:50;99915.84;;;9.98;100.00
9672;BME280;4874;43.568;27.824;2022-10-16T06:02:17;99928.78;;;10.02;100.00
9672;BME280;4874;43.568;27.824;2022-10-16T06:04:43;99924.09;;;10.06;100.00
9672;BME280;4874;43.568;27.824;2022-10-16T06:07:10;99928.00;;;10.46;100.00
9672;BME280;4874;43.568;27.824;2022-10-16T06:09:37;99931.25;;;10.16;100.00
9672;BME280;4874;43.568;27.824;2022-10-16T06:12:03;99909.25;;;9.92;100.00
9672;BME280;4874;43.568;27.824;2022-10-16T06:14:30;99919.09;;;10.47;100.00
9672;BME280;4874;43.568;27.824;2022-10-16T06:16:57;99928.38;;;10.30;100.00
9672;BME280;4874;43.568;27.824;2022-10-16T06:19:23;99928.97;;;10.34;100.00
9672;BME280;4874;43.568;27.824;2022-10-16T06:21:50;99934.44;;;10.43;100.00
9672;BME280;4874;43.568;27.824;2022-10-16T06:24:17;99937.06;;;10.77;100.00
9672;BME280;4874;43.568;27.824;2022-10-16T06:26:43;99947.91;;;10.96;100.00
9672;BME280;4874;43.568;27.824;2022-10-16T06:29:10;99948.63;;;10.98;100.00
9672;BME280;4874;43.568;27.824;2022-10-16T06:31:37;99958.53;;;10.96;100.00
9672;BME280;4874;43.568;27.824;2022-10-16T06:34:03;99959.22;;;11.31;100.00
9672;BME280;4874;43.568;27.824;2022-10-16T06:36:32;99952.06;;;11.31;100.00
9672;BME280;4874;43.568;27.824;2022-10-16T06:38:59;99964.53;;;11.62;100.00
9672;BME280;4874;43.568;27.824;2022-10-16T06:41:25;99965.66;;;11.92;100.00
9672;BME280;4874;43.568;27.824;2022-10-16T06:43:52;99969.94;;;12.04;100.00
9672;BME280;4874;43.568;27.824;2022-10-16T06:46:22;99966.13;;;11.97;100.00
9672;BME280;4874;43.568;27.824;2022-10-16T06:48:49;99970.00;;;11.72;100.00
9672;BME280;4874;43.568;27.824;2022-10-16T06:51:18;99962.16;;;12.53;100.00
9672;BME280;4874;43.568;27.824;2022-10-16T06:53:50;99967.53;;;12.72;100.00
9672;BME280;4874;43.568;27.824;2022-10-16T06:56:29;99964.69;;;12.54;100.00
9672;BME280;4874;43.568;27.824;2022-10-16T06:58:58;99961.69;;;13.08;100.00
9672;BME280;4874;43.568;27.824;2022-10-16T07:01:25;99971.56;;;12.87;100.00
9672;BME280;4874;43.568;27.824;2022-10-16T07:03:52;99978.53;;;12.78;100.00
9672;BME280;4874;43.568;27.824;2022-10-16T07:06:21;99973.91;;;13.11;100.00
9672;BME280;4874;43.568;27.824;2022-10-16T07:08:48;99972.41;;;13.27;100.00
9672;BME280;4874;43.568;27.824;2022-10-16T07:11:18;99979.47;;;13.47;100.00
9672;BME280;4874;43.568;27.824;2022-10-16T07:13:45;99973.59;;;13.53;100.00
9672;BME280;4874;43.568;27.824;2022-10-16T07:16:19;99979.34;;;13.49;100.00
9672;BME280;4874;43.568;27.824;2022-10-16T07:18:47;99983.44;;;13.72;100.00
9672;BME280;4874;43.568;27.824;2022-10-16T07:21:17;99984.00;;;14.04;100.00
9672;BME280;4874;43.568;27.824;2022-10-16T07:23:50;99991.19;;;13.84;100.00
9672;BME280;4874;43.568;27.824;2022-10-16T07:26:17;99987.22;;;13.88;100.00
9672;BME280;4874;43.568;27.824;2022-10-16T07:28:44;99984.56;;;13.88;100.00
9672;BME280;4874;43.568;27.824;2022-10-16T07:31:13;99989.22;;;13.86;100.00
9672;BME280;4874;43.568;27.824;2022-10-16T07:33:42;99985.69;;;13.86;100.00
9672;BME280;4874;43.568;27.824;2022-10-16T07:36:11;99991.72;;;13.97;100.00
9672;BME280;4874;43.568;27.824;2022-10-16T07:38:42;99988.50;;;13.94;100.00
9672;BME280;4874;43.568;27.824;2022-10-16T07:41:10;99985.69;;;14.34;100.00
9672;BME280;4874;43.568;27.824;2022-10-16T07:43:38;99980.19;;;14.35;100.00
9672;BME280;4874;43.568;27.824;2022-10-16T07:46:04;99974.72;;;14.37;100.00
9672;BME280;4874;43.568;27.824;2022-10-16T07:48:34;99970.94;;;14.76;100.00
9672;BME280;4874;43.568;27.824;2022-10-16T07:51:03;99975.88;;;14.80;100.00
9672;BME280;4874;43.568;27.824;2022-10-16T07:53:31;99971.31;;;14.90;100.00
9672;BME280;4874;43.568;27.824;2022-10-16T07:56:04;99970.13;;;14.66;100.00
9672;BME280;4874;43.568;27.824;2022-10-16T07:58:32;99981.75;;;14.84;100.00
9672;BME280;4874;43.568;27.824;2022-10-16T08:01:03;99981.31;;;14.42;100.00
9672;BME280;4874;43.568;27.824;2022-10-16T08:03:30;99963.31;;;14.25;100.00
9672;BME280;4874;43.568;27.824;2022-10-16T08:05:58;99988.63;;;14.11;100.00
9672;BME280;4874;43.568;27.824;2022-10-16T08:08:25;99994.53;;;14.44;100.00
9672;BME280;4874;43.568;27.824;2022-10-16T08:10:52;99994.25;;;14.37;100.00
9672;BME280;4874;43.568;27.824;2022-10-16T08:13:19;99991.19;;;14.23;100.00
9672;BME280;4874;43.568;27.824;2022-10-16T08:15:47;99969.78;;;14.51;100.00
9672;BME280;4874;43.568;27.824;2022-10-16T08:18:14;99984.38;;;14.57;100.00
9672;BME280;4874;43.568;27.824;2022-10-16T08:20:42;99991.91;;;14.71;100.00
9672;BME280;4874;43.568;27.824;2022-10-16T08:23:11;99991.69;;;15.01;100.00
9672;BME280;4874;43.568;27.824;2022-10-16T08:25:39;99995.16;;;15.11;100.00
9672;BME280;4874;43.568;27.824;2022-10-16T08:28:07;99994.84;;;15.51;100.00
9672;BME280;4874;43.568;27.824;2022-10-16T08:30:34;99982.88;;;14.81;100.00
9672;BME280;4874;43.568;27.824;2022-10-16T08:33:01;99997.44;;;14.96;100.00
9672;BME280;4874;43.568;27.824;2022-10-16T08:35:29;99977.31;;;15.02;100.00
9672;BME280;4874;43.568;27.824;2022-10-16T08:37:56;100007.44;;;15.31;100.00
9672;BME280;4874;43.568;27.824;2022-10-16T08:40:28;99988.94;;;15.10;100.00
9672;BME280;4874;43.568;27.824;2022-10-16T08:48:29;99999.00;;;15.80;100.00
9672;BME280;4874;43.568;27.824;2022-10-16T08:50:57;100003.66;;;15.78;100.00
9672;BME280;4874;43.568;27.824;2022-10-16T08:53:30;99999.97;;;15.79;100.00
9672;BME280;4874;43.568;27.824;2022-10-16T08:55:57;99998.81;;;15.64;100.00
9672;BME280;4874;43.568;27.824;2022-10-16T08:58:29;99986.13;;;15.12;100.00
9672;BME280;4874;43.568;27.824;2022-10-16T09:00:59;100013.59;;;15.41;100.00
9672;BME280;4874;43.568;27.824;2022-10-16T09:04:00;99995.59;;;15.33;100.00
9672;BME280;4874;43.568;27.824;2022-10-16T09:06:39;100000.75;;;15.17;100.00
9672;BME280;4874;43.568;27.824;2022-10-16T09:14:50;100003.16;;;15.48;100.00
9672;BME280;4874;43.568;27.824;2022-10-16T09:17:27;100003.88;;;15.85;100.00
9672;BME280;4874;43.568;27.824;2022-10-16T09:22:32;99961.31;;;15.99;100.00
9672;BME280;4874;43.568;27.824;2022-10-16T09:25:00;100011.00;;;15.76;100.00
9672;BME280;4874;43.568;27.824;2022-10-16T09:27:31;100018.50;;;15.73;100.00
9672;BME280;4874;43.568;27.824;2022-10-16T09:30:10;100001.53;;;15.82;100.00
9672;BME280;4874;43.568;27.824;2022-10-16T09:32:38;99995.94;;;15.93;100.00
9672;BME280;4874;43.568;27.824;2022-10-16T09:35:13;99993.47;;;15.99;100.00
9672;BME280;4874;43.568;27.824;2022-10-16T09:37:42;99987.19;;;16.08;100.00
9672;BME280;4874;43.568;27.824;2022-10-16T09:40:37;99988.38;;;16.06;100.00
9672;BME280;4874;43.568;27.824;2022-10-16T09:46:05;99979.94;;;16.01;100.00
9672;BME280;4874;43.568;27.824;2022-10-16T09:48:44;99984.13;;;16.03;100.00
9672;BME280;4874;43.568;27.824;2022-10-16T09:51:35;99978.41;;;16.16;100.00
9672;BME280;4874;43.568;27.824;2022-10-16T09:54:14;99972.41;;;16.04;100.00
9672;BME280;4874;43.568;27.824;2022-10-16T09:56:41;99969.88;;;16.20;100.00
9672;BME280;4874;43.568;27.824;2022-10-16T09:59:15;99978.28;;;16.25;100.00
9672;BME280;4874;43.568;27.824;2022-10-16T10:01:51;99966.94;;;16.49;100.00
9672;BME280;4874;43.568;27.824;2022-10-16T10:04:21;99974.03;;;16.58;100.00
9672;BME280;4874;43.568;27.824;2022-10-16T10:06:50;99969.22;;;16.44;100.00
9672;BME280;4874;43.568;27.824;2022-10-16T10:09:30;99984.06;;;16.82;100.00
9672;BME280;4874;43.568;27.824;2022-10-16T10:12:04;99984.59;;;16.60;100.00
9672;BME280;4874;43.568;27.824;2022-10-16T10:14:34;99982.41;;;16.81;100.00
9672;BME280;4874;43.568;27.824;2022-10-16T10:22:21;99974.75;;;16.42;100.00
9672;BME280;4874;43.568;27.824;2022-10-16T10:27:56;99971.38;;;16.58;100.00
9672;BME280;4874;43.568;27.824;2022-10-16T10:36:08;99960.41;;;16.77;100.00
9672;BME280;4874;43.568;27.824;2022-10-16T10:54:40;99949.44;;;16.88;100.00
9672;BME280;4874;43.568;27.824;2022-10-16T11:02:59;99950.19;;;17.14;100.00
9672;BME280;4874;43.568;27.824;2022-10-16T11:05:41;99946.72;;;17.30;100.00
9672;BME280;4874;43.568;27.824;2022-10-16T11:11:03;99951.91;;;17.31;99.48
9672;BME280;4874;43.568;27.824;2022-10-16T11:16:27;99951.56;;;17.18;99.87
9672;BME280;4874;43.568;27.824;2022-10-16T11:21:54;99937.84;;;17.29;100.00
9672;BME280;4874;43.568;27.824;2022-10-16T11:24:45;99946.47;;;17.07;99.45
9672;BME280;4874;43.568;27.824;2022-10-16T11:27:19;99927.06;;;17.13;97.86
9672;BME280;4874;43.568;27.824;2022-10-16T11:30:02;99944.88;;;17.22;98.41
9672;BME280;4874;43.568;27.824;2022-10-16T11:33:30;99942.06;;;17.40;97.65
9672;BME280;4874;43.568;27.824;2022-10-16T11:35:49;99919.19;;;17.20;99.44
9672;BME280;4874;43.568;27.824;2022-10-16T11:41:22;99945.31;;;17.10;96.92
9672;BME280;4874;43.568;27.824;2022-10-16T11:53:16;99951.72;;;17.17;96.64
9672;BME280;4874;43.568;27.824;2022-10-16T11:55:45;99946.38;;;17.25;94.02
9672;BME280;4874;43.568;27.824;2022-10-16T11:58:35;99941.16;;;17.65;93.01
9672;BME280;4874;43.568;27.824;2022-10-16T12:03:47;99943.06;;;17.31;91.92
9672;BME280;4874;43.568;27.824;2022-10-16T12:09:32;99945.25;;;17.43;94.06
9672;BME280;4874;43.568;27.824;2022-10-16T12:12:01;99943.97;;;17.47;94.63
9672;BME280;4874;43.568;27.824;2022-10-16T12:14:38;99929.28;;;17.34;94.42
9672;BME280;4874;43.568;27.824;2022-10-16T12:17:37;99955.00;;;17.44;92.36
9672;BME280;4874;43.568;27.824;2022-10-16T12:22:54;99958.81;;;17.26;90.45
9672;BME280;4874;43.568;27.824;2022-10-16T12:28:00;99953.53;;;17.50;87.72
9672;BME280;4874;43.568;27.824;2022-10-16T12:30:30;99948.53;;;17.55;86.63
9672;BME280;4874;43.568;27.824;2022-10-16T12:33:04;99916.44;;;17.04;89.65
9672;BME280;4874;43.568;27.824;2022-10-16T12:35:34;99958.28;;;17.72;88.19
9672;BME280;4874;43.568;27.824;2022-10-16T12:38:15;99960.47;;;17.19;90.91
9672;BME280;4874;43.568;27.824;2022-10-16T12:40:45;99963.84;;;17.37;90.01
9672;BME280;4874;43.568;27.824;2022-10-16T12:43:46;99959.06;;;17.48;90.54
9672;BME280;4874;43.568;27.824;2022-10-16T12:48:42;99963.22;;;17.43;91.11
9672;BME280;4874;43.568;27.824;2022-10-16T12:54:10;99974.25;;;17.32;90.71
9672;BME280;4874;43.568;27.824;2022-10-16T13:05:11;99976.84;;;17.16;88.32
9672;BME280;4874;43.568;27.824;2022-10-16T13:21:59;99977.69;;;17.16;90.09
9672;BME280;4874;43.568;27.824;2022-10-16T13:27:38;99974.16;;;17.16;89.83
9672;BME280;4874;43.568;27.824;2022-10-16T13:30:28;99976.91;;;17.24;89.73
9672;BME280;4874;43.568;27.824;2022-10-16T13:33:06;99969.28;;;17.03;90.10
9672;BME280;4874;43.568;27.824;2022-10-16T13:35:35;99983.47;;;16.96;91.48
9672;BME280;4874;43.568;27.824;2022-10-16T13:38:12;99981.63;;;16.88;90.94
9672;BME280;4874;43.568;27.824;2022-10-16T13:45:58;99992.47;;;16.87;90.88
9672;BME280;4874;43.568;27.824;2022-10-16T13:48:25;99969.88;;;16.89;90.05
9672;BME280;4874;43.568;27.824;2022-10-16T13:51:20;99947.97;;;16.68;89.52
9672;BME280;4874;43.568;27.824;2022-10-16T13:53:45;99991.00;;;16.92;87.78
9672;BME280;4874;43.568;27.824;2022-10-16T13:56:15;99993.09;;;16.73;92.20
9672;BME280;4874;43.568;27.824;2022-10-16T13:58:42;99972.22;;;16.59;87.42
9672;BME280;4874;43.568;27.824;2022-10-16T14:01:18;99989.16;;;16.59;88.56
9672;BME280;4874;43.568;27.824;2022-10-16T14:03:47;99986.63;;;16.40;89.73
9672;BME280;4874;43.568;27.824;2022-10-16T14:06:19;99988.75;;;16.54;89.48
9672;BME280;4874;43.568;27.824;2022-10-16T14:11:23;99998.16;;;16.40;92.76
9672;BME280;4874;43.568;27.824;2022-10-16T14:13:51;99988.63;;;16.38;94.38
9672;BME280;4874;43.568;27.824;2022-10-16T14:16:24;100007.63;;;16.27;96.31
9672;BME280;4874;43.568;27.824;2022-10-16T14:18:57;100003.31;;;16.34;94.74
9672;BME280;4874;43.568;27.824;2022-10-16T14:21:25;100016.28;;;16.21;92.19
9672;BME280;4874;43.568;27.824;2022-10-16T14:23:53;100015.38;;;16.30;95.75
9672;BME280;4874;43.568;27.824;2022-10-16T14:26:22;100017.50;;;16.26;97.65
9672;BME280;4874;43.568;27.824;2022-10-16T14:29:08;99990.41;;;16.12;98.32
9672;BME280;4874;43.568;27.824;2022-10-16T14:31:36;100021.53;;;16.30;97.73
9672;BME280;4874;43.568;27.824;2022-10-16T14:34:03;100017.19;;;16.12;98.19
9672;BME280;4874;43.568;27.824;2022-10-16T14:36:30;100011.94;;;16.02;99.41
9672;BME280;4874;43.568;27.824;2022-10-16T14:38:59;100009.47;;;15.91;100.00
9672;BME280;4874;43.568;27.824;2022-10-16T14:41:28;100012.47;;;15.88;100.00
9672;BME280;4874;43.568;27.824;2022-10-16T14:43:56;100008.00;;;15.79;100.00
9672;BME280;4874;43.568;27.824;2022-10-16T14:46:38;100010.69;;;15.79;99.91
9672;BME280;4874;43.568;27.824;2022-10-16T14:51:40;100013.88;;;15.65;100.00
9672;BME280;4874;43.568;27.824;2022-10-16T14:54:09;100023.31;;;15.69;100.00
9672;BME280;4874;43.568;27.824;2022-10-16T14:56:48;100025.59;;;15.64;100.00
9672;BME280;4874;43.568;27.824;2022-10-16T14:59:40;99982.00;;;15.27;100.00
9672;BME280;4874;43.568;27.824;2022-10-16T15:04:41;100026.00;;;15.42;100.00
9672;BME280;4874;43.568;27.824;2022-10-16T15:07:07;100018.38;;;15.38;100.00
9672;BME280;4874;43.568;27.824;2022-10-16T15:09:34;100002.00;;;15.23;100.00
9672;BME280;4874;43.568;27.824;2022-10-16T15:12:00;100015.69;;;15.10;100.00
9672;BME280;4874;43.568;27.824;2022-10-16T15:14:28;100033.31;;;15.13;100.00
9672;BME280;4874;43.568;27.824;2022-10-16T15:16:54;100027.81;;;15.05;100.00
9672;BME280;4874;43.568;27.824;2022-10-16T15:19:21;100019.84;;;14.95;100.00
9672;BME280;4874;43.568;27.824;2022-10-16T15:21:48;100003.75;;;14.68;100.00
9672;BME280;4874;43.568;27.824;2022-10-16T15:24:15;100035.59;;;14.98;100.00
9672;BME280;4874;43.568;27.824;2022-10-16T15:26:44;100038.81;;;15.02;100.00
9672;BME280;4874;43.568;27.824;2022-10-16T15:29:14;100039.28;;;14.88;100.00
9672;BME280;4874;43.568;27.824;2022-10-16T15:31:41;100044.06;;;14.84;100.00
9672;BME280;4874;43.568;27.824;2022-10-16T15:34:11;100045.38;;;14.80;100.00
9672;BME280;4874;43.568;27.824;2022-10-16T15:36:40;100051.03;;;14.68;100.00
9672;BME280;4874;43.568;27.824;2022-10-16T15:39:18;100052.88;;;14.58;100.00
9672;BME280;4874;43.568;27.824;2022-10-16T15:41:46;100057.25;;;14.49;100.00
9672;BME280;4874;43.568;27.824;2022-10-16T15:44:20;100058.09;;;14.50;100.00
9672;BME280;4874;43.568;27.824;2022-10-16T15:46:49;100058.94;;;14.41;100.00
9672;BME280;4874;43.568;27.824;2022-10-16T15:49:16;100065.97;;;14.32;100.00
9672;BME280;4874;43.568;27.824;2022-10-16T15:51:42;100074.13;;;14.31;100.00
9672;BME280;4874;43.568;27.824;2022-10-16T15:54:09;100069.75;;;14.30;100.00
9672;BME280;4874;43.568;27.824;2022-10-16T15:56:35;100082.56;;;14.36;100.00